Time;durP1;ratioP1;P1;durP2;ratioP2;P2;SDS_P1;SDS_P2;PMS_P1;PMS_P2;Temp;Humidity;BMP_temperature;BMP_pressure;BME280_temperature;BME280_humidity;BME280_pressure;Samples;Min_cycle;Max_cycle;Signal;HPM_P1;HPM_P2
2021/12/29 00:01:39;;;;;;;23.08;10.60;;;7.30;99.90;;;;;;5008599;28;20045;-84
2021/12/29 00:04:05;;;;;;;35.00;12.27;;;5.80;99.90;;;;;;4996260;28;20091;-84
2021/12/29 00:06:31;;;;;;;28.88;11.18;;;5.90;99.90;;;;;;4996083;28;20045;-84
2021/12/29 00:08:58;;;;;;;26.00;10.82;;;5.90;99.90;;;;;;4996533;28;20048;-84
2021/12/29 00:11:26;;;;;;;24.17;10.77;;;5.90;99.90;;;;;;4995069;28;20048;-84
2021/12/29 00:13:51;;;;;;;51.47;14.02;;;6.30;99.90;;;;;;5013111;28;20429;-84
2021/12/29 00:16:17;;;;;;;68.43;15.13;;;6.00;99.90;;;;;;4996179;28;20046;-84
2021/12/29 00:18:44;;;;;;;33.75;13.13;;;7.50;99.90;;;;;;4999473;28;20540;-84
2021/12/29 00:21:10;;;;;;;30.55;13.23;;;6.00;99.90;;;;;;4995981;28;20196;-84
2021/12/29 00:23:36;;;;;;;41.60;14.50;;;7.20;99.90;;;;;;4978437;28;20103;-84
2021/12/29 00:26:03;;;;;;;29.33;13.38;;;7.30;99.90;;;;;;4994893;28;20038;-84
2021/12/29 00:28:29;;;;;;;52.08;16.05;;;7.00;99.90;;;;;;4990644;28;20490;-84
2021/12/29 00:30:55;;;;;;;36.08;13.93;;;6.00;99.90;;;;;;4964686;28;20092;-84
2021/12/29 00:33:21;;;;;;;24.65;11.43;;;6.10;99.90;;;;;;4991837;28;20115;-84
2021/12/29 00:35:47;;;;;;;33.45;14.10;;;6.10;99.90;;;;;;4986342;28;20038;-84
2021/12/29 00:38:13;;;;;;;34.67;14.05;;;7.60;99.90;;;;;;4971735;28;20053;-84
2021/12/29 00:40:40;;;;;;;27.35;12.55;;;6.80;99.90;;;;;;4956387;28;20269;-84
2021/12/29 00:43:07;;;;;;;30.58;12.38;;;7.60;99.90;;;;;;4975894;28;20135;-84
2021/12/29 00:45:37;;;;;;;41.95;14.20;;;6.70;99.90;;;;;;4949692;28;20430;-84
2021/12/29 00:48:06;;;;;;;79.93;17.63;;;6.10;99.90;;;;;;4971477;28;20038;-84
2021/12/29 00:50:33;;;;;;;55.42;15.68;;;6.20;99.90;;;;;;4975853;28;20095;-84
2021/12/29 00:52:59;;;;;;;51.63;15.07;;;6.10;99.90;;;;;;4966447;28;20044;-84
2021/12/29 00:55:25;;;;;;;50.92;14.77;;;7.10;99.90;;;;;;4977562;28;20053;-84
2021/12/29 00:57:51;;;;;;;42.33;14.32;;;6.80;99.90;;;;;;4962212;28;20038;-84
2021/12/29 01:00:20;;;;;;;32.38;12.10;;;7.00;99.90;;;;;;4978382;28;20037;-84
2021/12/29 01:02:47;;;;;;;35.35;11.68;;;6.10;99.90;;;;;;4975741;28;20049;-84
2021/12/29 01:05:14;;;;;;;31.73;11.32;;;6.70;99.90;;;;;;4975072;28;20038;-84
2021/12/29 01:07:42;;;;;;;23.98;10.45;;;6.90;99.90;;;;;;4963480;28;20034;-84
2021/12/29 01:10:08;;;;;;;22.80;10.15;;;6.90;99.90;;;;;;4983592;28;20107;-84
2021/12/29 01:12:34;;;;;;;22.67;9.43;;;6.20;99.90;;;;;;4954374;28;20395;-84
2021/12/29 01:15:02;;;;;;;25.55;9.75;;;7.60;99.90;;;;;;4975557;28;20034;-84
2021/12/29 01:17:27;;;;;;;30.52;10.68;;;6.30;99.90;;;;;;4982860;28;20704;-83
2021/12/29 01:19:54;;;;;;;29.42;9.75;;;7.30;99.90;;;;;;4967353;28;20050;-84
2021/12/29 01:22:21;;;;;;;32.90;11.07;;;6.30;99.90;;;;;;4978429;28;20517;-84
2021/12/29 01:24:47;;;;;;;33.30;10.85;;;7.60;99.90;;;;;;4965019;28;20034;-84
2021/12/29 01:27:14;;;;;;;29.02;10.20;;;7.30;99.90;;;;;;4980708;28;20033;-84
2021/12/29 01:29:40;;;;;;;32.55;10.60;;;6.40;99.90;;;;;;4983836;28;20501;-84
2021/12/29 01:32:06;;;;;;;29.60;10.48;;;7.10;99.90;;;;;;5012104;28;20491;-84
2021/12/29 01:34:32;;;;;;;30.95;10.25;;;6.50;99.90;;;;;;4998187;28;20042;-84
2021/12/29 01:36:58;;;;;;;38.90;11.30;;;6.40;99.90;;;;;;4980411;28;20046;-84
2021/12/29 01:39:25;;;;;;;34.00;11.43;;;6.50;99.90;;;;;;4982306;28;20097;-84
2021/12/29 01:41:54;;;;;;;30.55;11.32;;;6.90;99.90;;;;;;4982156;28;20479;-84
2021/12/29 01:44:23;;;;;;;38.13;12.27;;;7.20;99.90;;;;;;4982033;28;20569;-84
2021/12/29 01:46:50;;;;;;;37.40;11.77;;;6.50;99.90;;;;;;4981877;28;20038;-84
2021/12/29 01:49:16;;;;;;;42.55;13.45;;;6.50;99.90;;;;;;4974481;28;20104;-84
2021/12/29 01:51:49;;;;;;;48.42;15.23;;;7.00;99.90;;;;;;4983669;28;20045;-84
2021/12/29 01:54:23;;;;;;;48.10;13.88;;;7.70;99.90;;;;;;4981705;28;20519;-85
2021/12/29 01:56:54;;;;;;;46.22;14.80;;;7.70;99.90;;;;;;4997700;28;20065;-84
2021/12/29 01:59:22;;;;;;;54.83;14.68;;;6.60;99.90;;;;;;4991887;28;20121;-84
2021/12/29 02:01:48;;;;;;;55.70;15.10;;;6.60;99.90;;;;;;4996155;28;20038;-84
2021/12/29 02:04:14;;;;;;;48.55;15.23;;;6.60;99.90;;;;;;4965652;28;20556;-84
2021/12/29 02:06:40;;;;;;;54.17;15.02;;;7.50;99.90;;;;;;4996117;28;20092;-84
2021/12/29 02:09:08;;;;;;;49.45;15.98;;;6.60;99.90;;;;;;4981998;28;20046;-84
2021/12/29 02:11:37;;;;;;;55.78;15.32;;;6.60;99.90;;;;;;4969767;28;20109;-84
2021/12/29 02:14:05;;;;;;;71.20;16.48;;;7.50;99.90;;;;;;4980097;28;20166;-84
2021/12/29 02:16:31;;;;;;;60.22;16.13;;;6.60;99.90;;;;;;4991173;28;20513;-84
2021/12/29 02:18:59;;;;;;;56.88;15.65;;;7.30;99.90;;;;;;4965021;28;20049;-84
2021/12/29 02:21:28;;;;;;;49.45;14.30;;;6.60;99.90;;;;;;4997160;28;20042;-84
2021/12/29 02:24:16;;;;;;;57.95;15.90;;;6.60;99.90;;;;;;5000717;28;20103;-84
2021/12/29 02:26:42;;;;;;;81.65;18.10;;;6.60;99.90;;;;;;5000096;28;20046;-84
2021/12/29 02:29:12;;;;;;;67.80;17.30;;;7.60;99.90;;;;;;4981395;28;20378;-84
2021/12/29 02:31:39;;;;;;;61.85;16.45;;;6.00;99.90;;;;;;4980557;28;20073;-84
2021/12/29 02:34:08;;;;;;;64.25;17.00;;;6.60;99.90;;;;;;4980380;28;20041;-85
2021/12/29 02:36:43;;;;;;;60.45;15.77;;;7.60;99.90;;;;;;4976086;28;20126;-84
2021/12/29 02:39:11;;;;;;;67.75;16.35;;;6.60;99.90;;;;;;4989716;28;20037;-84
2021/12/29 02:41:40;;;;;;;70.43;16.50;;;6.60;99.90;;;;;;4978918;28;20529;-84
2021/12/29 02:44:10;;;;;;;112.60;18.95;;;6.60;99.90;;;;;;4972479;28;20050;-84
2021/12/29 02:46:37;;;;;;;58.33;16.40;;;6.60;99.90;;;;;;4967147;28;20049;-84
2021/12/29 02:49:03;;;;;;;63.78;15.77;;;7.10;99.90;;;;;;4960377;28;20068;-84
2021/12/29 02:51:33;;;;;;;56.20;15.55;;;7.70;99.90;;;;;;4961112;28;20103;-85
2021/12/29 02:54:00;;;;;;;59.67;16.45;;;6.60;99.90;;;;;;4961935;28;20033;-84
2021/12/29 02:56:27;;;;;;;48.97;14.80;;;6.60;99.90;;;;;;4988158;28;20038;-84
2021/12/29 02:58:57;;;;;;;71.60;16.13;;;6.60;99.90;;;;;;4961223;28;20038;-84
2021/12/29 03:01:24;;;;;;;49.63;14.77;;;8.10;99.90;;;;;;4993775;28;20038;-84
2021/12/29 03:03:49;;;;;;;41.45;13.70;;;6.60;99.90;;;;;;4994092;28;20037;-84
2021/12/29 03:06:15;;;;;;;52.55;13.32;;;6.60;99.90;;;;;;4945568;28;20122;-84
2021/12/29 03:08:41;;;;;;;51.47;13.73;;;6.60;99.90;;;;;;4963022;28;20037;-84
2021/12/29 03:11:08;;;;;;;47.08;12.32;;;7.80;99.90;;;;;;4962727;28;20061;-84
2021/12/29 03:13:36;;;;;;;44.53;11.63;;;6.60;99.90;;;;;;4977632;28;20042;-84
2021/12/29 03:16:02;;;;;;;36.35;10.98;;;6.60;99.90;;;;;;4958922;28;20030;-84
2021/12/29 03:18:29;;;;;;;38.40;10.88;;;6.70;99.90;;;;;;4992829;28;20101;-84
2021/12/29 03:20:56;;;;;;;32.08;10.15;;;7.40;99.90;;;;;;4992997;28;20537;-85
2021/12/29 03:23:22;;;;;;;40.10;10.90;;;8.00;99.90;;;;;;4994348;28;20038;-85
2021/12/29 03:25:49;;;;;;;35.92;11.07;;;6.80;99.90;;;;;;4962108;28;20151;-84
2021/12/29 03:28:22;;;;;;;36.15;10.88;;;7.50;99.90;;;;;;4975755;28;20149;-84
2021/12/29 03:30:52;;;;;;;43.38;11.77;;;7.10;99.90;;;;;;4962439;28;20514;-84
2021/12/29 03:33:18;;;;;;;42.55;10.82;;;8.00;99.90;;;;;;4946579;28;20076;-85
2021/12/29 03:35:48;;;;;;;35.15;11.27;;;6.90;99.90;;;;;;4977962;28;20361;-85
2021/12/29 03:38:20;;;;;;;47.27;12.03;;;7.60;99.90;;;;;;4977739;28;20404;-84
2021/12/29 03:40:46;;;;;;;48.43;12.30;;;8.00;99.90;;;;;;4976999;28;20048;-84
2021/12/29 03:43:13;;;;;;;47.25;12.82;;;8.80;99.90;;;;;;4977905;28;20121;-85
2021/12/29 03:45:42;;;;;;;39.65;13.18;;;7.10;99.90;;;;;;4977348;28;20131;-85
2021/12/29 03:48:09;;;;;;;44.42;12.43;;;7.10;99.90;;;;;;4977774;28;20474;-84
2021/12/29 03:50:35;;;;;;;48.28;14.15;;;7.10;99.90;;;;;;4976897;28;20046;-85
2021/12/29 03:53:01;;;;;;;49.05;13.35;;;7.80;99.90;;;;;;4977509;28;20124;-84
2021/12/29 03:55:27;;;;;;;41.70;13.88;;;7.10;99.90;;;;;;4977786;28;20709;-85
2021/12/29 03:57:52;;;;;;;49.88;15.50;;;8.10;99.90;;;;;;4961543;28;20697;-84
2021/12/29 04:00:20;;;;;;;51.40;15.07;;;7.40;99.90;;;;;;4961478;28;20049;-84
2021/12/29 04:02:47;;;;;;;51.95;15.50;;;7.20;99.90;;;;;;4992155;28;20464;-84
2021/12/29 04:05:17;;;;;;;55.60;15.45;;;7.60;99.90;;;;;;4976580;28;20115;-85
2021/12/29 04:07:43;;;;;;;60.50;16.45;;;7.50;99.90;;;;;;4993226;28;20046;-84
2021/12/29 04:10:10;;;;;;;54.15;16.67;;;8.60;99.90;;;;;;4974208;28;20042;-84
2021/12/29 04:12:36;;;;;;;61.78;17.75;;;7.20;99.90;;;;;;4975096;28;20053;-85
2021/12/29 04:15:03;;;;;;;59.88;18.67;;;7.20;99.90;;;;;;4987656;28;20095;-84
2021/12/29 04:17:36;;;;;;;69.95;18.95;;;7.20;99.90;;;;;;4976919;28;20058;-84
2021/12/29 04:22:50;;;;;;;58.22;18.17;;;7.20;99.90;;;;;;4990597;28;20004;-85
2021/12/29 04:25:18;;;;;;;63.15;19.35;;;7.20;99.90;;;;;;4973720;28;20090;-85
2021/12/29 04:27:46;;;;;;;69.38;19.92;;;7.20;99.90;;;;;;4983027;28;20125;-85
2021/12/29 04:30:12;;;;;;;74.78;19.17;;;7.20;99.90;;;;;;4984037;28;20121;-84
2021/12/29 04:32:38;;;;;;;64.60;17.83;;;8.80;99.90;;;;;;4975867;28;20539;-84
2021/12/29 04:35:04;;;;;;;54.20;16.65;;;8.20;99.90;;;;;;4992624;28;20036;-84
2021/12/29 04:37:30;;;;;;;65.18;18.45;;;7.20;99.90;;;;;;4962793;28;20136;-85
2021/12/29 04:39:55;;;;;;;55.35;16.75;;;7.20;99.90;;;;;;4976098;28;20546;-85
2021/12/29 04:42:21;;;;;;;59.03;16.70;;;7.30;99.90;;;;;;4992628;28;20034;-85
2021/12/29 04:44:47;;;;;;;51.30;16.10;;;8.40;99.90;;;;;;4972945;28;20065;-84
2021/12/29 04:47:12;;;;;;;54.55;16.60;;;7.20;99.90;;;;;;4971913;28;20038;-84
2021/12/29 04:49:42;;;;;;;56.00;15.60;;;7.50;99.90;;;;;;4979459;28;20053;-84
2021/12/29 04:52:10;;;;;;;43.05;15.35;;;7.30;99.90;;;;;;4975652;28;20180;-84
2021/12/29 04:54:37;;;;;;;55.63;15.20;;;8.70;99.90;;;;;;4976045;28;20042;-84
2021/12/29 04:57:04;;;;;;;55.88;14.82;;;7.70;99.90;;;;;;4975627;28;20109;-85
2021/12/29 04:59:29;;;;;;;51.47;15.05;;;7.30;99.90;;;;;;4976184;28;20072;-84
2021/12/29 05:01:55;;;;;;;53.83;15.52;;;7.40;99.90;;;;;;4976268;28;20030;-84
2021/12/29 05:04:29;;;;;;;56.58;16.40;;;8.10;99.90;;;;;;4992156;28;20113;-85
2021/12/29 05:09:39;;;;;;;52.53;16.13;;;8.60;99.90;;;;;;4978647;28;20056;-84
2021/12/29 05:12:06;;;;;;;53.92;16.25;;;7.30;99.90;;;;;;4989263;28;20053;-85
2021/12/29 05:14:31;;;;;;;47.88;16.70;;;7.30;99.90;;;;;;4957029;28;20042;-84
2021/12/29 05:16:57;;;;;;;57.88;17.33;;;7.50;99.90;;;;;;4956050;28;20421;-85
2021/12/29 05:19:23;;;;;;;65.50;18.60;;;8.10;99.90;;;;;;4992194;28;20052;-84
2021/12/29 05:21:49;;;;;;;60.17;18.00;;;8.10;99.90;;;;;;4975565;28;20316;-85
2021/12/29 05:24:14;;;;;;;56.95;18.42;;;7.30;99.90;;;;;;4958004;28;20042;-84
2021/12/29 05:26:40;;;;;;;68.00;19.92;;;7.30;99.90;;;;;;4975565;28;20398;-85
2021/12/29 05:29:06;;;;;;;59.17;18.65;;;7.50;99.90;;;;;;4958917;28;20041;-84
2021/12/29 05:31:32;;;;;;;61.85;17.58;;;7.30;99.90;;;;;;5000423;28;20108;-85
2021/12/29 05:33:58;;;;;;;63.70;19.60;;;7.30;99.90;;;;;;4956843;28;20443;-84
2021/12/29 05:36:24;;;;;;;49.92;18.33;;;7.30;99.90;;;;;;4970275;28;20048;-84
2021/12/29 05:38:52;;;;;;;47.42;16.88;;;7.30;99.90;;;;;;4984787;28;20108;-84
2021/12/29 05:41:19;;;;;;;61.72;17.50;;;7.70;99.90;;;;;;4974667;28;20046;-85
2021/12/29 05:43:45;;;;;;;54.60;17.65;;;8.00;99.90;;;;;;4976027;28;20044;-85
2021/12/29 05:46:11;;;;;;;57.15;18.00;;;8.10;99.90;;;;;;4960358;28;20029;-84
2021/12/29 05:48:37;;;;;;;50.30;17.13;;;7.20;99.90;;;;;;4971395;28;20121;-84
2021/12/29 05:51:03;;;;;;;46.55;16.05;;;7.30;99.90;;;;;;4982886;28;20106;-85
2021/12/29 05:53:29;;;;;;;49.65;16.35;;;8.20;99.90;;;;;;4974820;28;20498;-84
2021/12/29 05:55:55;;;;;;;62.10;18.08;;;7.30;99.90;;;;;;4991643;28;20050;-84
2021/12/29 05:58:21;;;;;;;46.85;16.05;;;7.30;99.90;;;;;;4959337;28;20465;-84
2021/12/29 06:00:47;;;;;;;57.20;17.42;;;7.60;99.90;;;;;;4965646;28;20030;-84
2021/12/29 06:03:13;;;;;;;53.80;16.45;;;7.30;99.90;;;;;;5004481;28;20072;-84
2021/12/29 06:05:39;;;;;;;58.70;17.60;;;7.30;99.90;;;;;;4975475;28;20124;-84
2021/12/29 06:08:06;;;;;;;60.95;17.27;;;7.30;99.90;;;;;;4958789;28;20062;-84
2021/12/29 06:10:32;;;;;;;49.80;16.80;;;7.30;99.90;;;;;;4993527;28;20886;-84
2021/12/29 06:12:58;;;;;;;53.58;15.55;;;7.70;99.90;;;;;;4974143;28;20057;-85
2021/12/29 06:15:24;;;;;;;62.63;17.67;;;7.30;99.90;;;;;;4980781;28;20115;-84
2021/12/29 06:17:49;;;;;;;49.72;16.92;;;7.30;99.90;;;;;;4944206;28;20066;-85
2021/12/29 06:20:15;;;;;;;55.88;16.83;;;7.30;99.90;;;;;;4958803;28;20050;-84
2021/12/29 06:22:43;;;;;;;45.63;15.88;;;7.40;99.90;;;;;;4994247;28;20514;-84
2021/12/29 06:25:11;;;;;;;57.80;18.20;;;7.30;99.90;;;;;;4990566;28;20049;-84
2021/12/29 06:27:38;;;;;;;54.17;16.48;;;7.30;99.90;;;;;;4987247;28;20076;-84
2021/12/29 06:30:06;;;;;;;50.63;17.80;;;7.30;99.90;;;;;;4975190;28;20045;-83
2021/12/29 06:32:32;;;;;;;56.70;17.23;;;7.30;99.90;;;;;;4978878;28;20108;-83
2021/12/29 06:34:57;;;;;;;48.88;17.50;;;8.30;99.90;;;;;;4986362;28;20379;-84
2021/12/29 06:37:23;;;;;;;52.58;17.73;;;7.30;99.90;;;;;;4973711;28;20044;-84
2021/12/29 06:39:49;;;;;;;51.67;18.38;;;7.30;99.90;;;;;;4981565;28;20514;-84
2021/12/29 06:42:16;;;;;;;51.00;17.85;;;8.40;99.90;;;;;;4978896;28;20379;-84
2021/12/29 06:44:44;;;;;;;51.60;17.25;;;8.40;99.90;;;;;;4976277;28;20037;-85
2021/12/29 06:47:10;;;;;;;65.88;17.95;;;7.80;99.90;;;;;;4989598;28;20041;-85
2021/12/29 06:49:36;;;;;;;61.30;18.83;;;7.70;99.90;;;;;;4977948;28;20495;-84
2021/12/29 06:52:03;;;;;;;55.60;18.38;;;8.70;99.90;;;;;;4959761;28;20193;-84
2021/12/29 06:54:31;;;;;;;63.03;19.80;;;7.30;99.90;;;;;;4994519;28;20096;-86
2021/12/29 06:56:56;;;;;;;61.67;19.33;;;8.40;99.90;;;;;;4977382;28;20561;-85
2021/12/29 06:59:22;;;;;;;73.88;19.58;;;8.60;99.90;;;;;;4990360;28;20038;-85
2021/12/29 07:01:48;;;;;;;62.70;19.55;;;7.70;99.90;;;;;;4972454;28;20040;-84
2021/12/29 07:04:14;;;;;;;56.90;18.25;;;7.30;99.90;;;;;;4979267;28;20045;-84
2021/12/29 07:06:40;;;;;;;51.95;18.77;;;7.20;99.90;;;;;;4975336;28;20457;-84
2021/12/29 07:09:06;;;;;;;66.90;18.77;;;8.40;99.90;;;;;;4977524;28;20042;-84
2021/12/29 07:11:33;;;;;;;89.95;20.60;;;7.30;99.90;;;;;;4977776;28;20068;-84
2021/12/29 07:14:03;;;;;;;59.72;17.80;;;8.80;99.90;;;;;;4968413;28;20052;-85
2021/12/29 07:16:29;;;;;;;60.33;18.20;;;8.60;99.90;;;;;;4975042;28;20712;-85
2021/12/29 07:18:56;;;;;;;74.00;19.45;;;7.30;99.90;;;;;;4965512;28;20101;-85
2021/12/29 07:21:22;;;;;;;73.20;19.15;;;7.30;99.90;;;;;;4991297;28;20594;-84
2021/12/29 07:23:49;;;;;;;77.95;19.95;;;8.20;99.90;;;;;;4976981;28;20037;-85
2021/12/29 07:26:15;;;;;;;72.43;20.10;;;7.30;99.90;;;;;;4977988;28;20046;-84
2021/12/29 07:28:41;;;;;;;69.53;19.77;;;7.80;99.90;;;;;;4958982;28;20100;-85
2021/12/29 07:31:07;;;;;;;74.07;20.02;;;7.20;99.90;;;;;;4976086;28;20032;-84
2021/12/29 07:33:33;;;;;;;73.45;19.30;;;7.70;99.90;;;;;;4977491;28;20038;-84
2021/12/29 07:35:59;;;;;;;77.95;20.45;;;7.20;99.90;;;;;;4977531;28;20192;-84
2021/12/29 07:38:25;;;;;;;63.63;18.05;;;8.40;99.90;;;;;;4977790;28;20042;-84
2021/12/29 07:40:51;;;;;;;95.72;20.42;;;7.20;99.90;;;;;;4993408;28;20677;-84
2021/12/29 07:43:18;;;;;;;75.68;19.92;;;7.20;99.90;;;;;;4978370;28;20060;-84
2021/12/29 07:45:44;;;;;;;74.38;18.08;;;7.20;99.90;;;;;;4974225;28;20550;-84
2021/12/29 07:48:10;;;;;;;60.92;18.50;;;8.00;99.90;;;;;;4982005;28;20130;-85
2021/12/29 07:50:37;;;;;;;70.10;19.65;;;7.20;99.90;;;;;;4992742;28;20045;-84
2021/12/29 07:53:04;;;;;;;61.58;18.30;;;7.50;99.90;;;;;;4977192;28;20592;-85
2021/12/29 07:55:30;;;;;;;99.88;19.98;;;8.10;99.90;;;;;;4974661;28;20052;-85
2021/12/29 07:57:56;;;;;;;77.55;19.38;;;7.20;99.90;;;;;;4962459;28;20034;-85
2021/12/29 08:00:23;;;;;;;69.18;19.77;;;7.30;99.90;;;;;;4966685;28;20041;-85
2021/12/29 08:02:50;;;;;;;78.20;19.63;;;8.00;99.90;;;;;;4991962;28;20471;-85
2021/12/29 08:05:16;;;;;;;80.45;19.60;;;7.30;99.90;;;;;;4992353;28;20045;-85
2021/12/29 08:07:42;;;;;;;64.53;18.20;;;7.30;99.90;;;;;;4960941;28;20034;-85
2021/12/29 08:10:08;;;;;;;108.43;19.48;;;7.50;99.90;;;;;;4960970;28;20505;-85
2021/12/29 08:12:34;;;;;;;108.82;18.58;;;7.20;99.90;;;;;;4976380;28;20549;-85
2021/12/29 08:15:00;;;;;;;132.75;20.42;;;7.90;99.90;;;;;;4960937;28;20041;-85
2021/12/29 08:17:26;;;;;;;202.25;25.17;;;8.30;99.90;;;;;;4959599;28;20141;-86
2021/12/29 08:19:52;;;;;;;68.15;18.27;;;8.20;99.90;;;;;;4988702;28;20057;-86
2021/12/29 08:22:18;;;;;;;75.57;18.35;;;7.90;99.90;;;;;;4960296;28;20042;-86
2021/12/29 08:24:44;;;;;;;73.68;18.98;;;7.10;99.90;;;;;;4988264;28;20046;-86
2021/12/29 08:27:11;;;;;;;63.00;17.83;;;8.10;99.90;;;;;;4993196;28;20038;-86
2021/12/29 08:29:37;;;;;;;59.47;17.15;;;7.10;99.90;;;;;;4978033;28;20045;-86
2021/12/29 08:32:03;;;;;;;81.72;18.30;;;8.20;99.90;;;;;;4986184;28;20035;-84
2021/12/29 08:34:29;;;;;;;99.57;18.38;;;7.10;99.90;;;;;;4976998;28;20046;-85
2021/12/29 08:36:55;;;;;;;110.03;19.95;;;8.30;99.90;;;;;;4960749;28;20410;-85
2021/12/29 08:39:21;;;;;;;84.47;17.55;;;7.10;99.90;;;;;;4959914;28;20065;-86
2021/12/29 08:41:49;;;;;;;78.95;16.77;;;7.10;99.90;;;;;;4975797;28;20038;-85
2021/12/29 08:44:15;;;;;;;104.68;18.27;;;7.20;99.90;;;;;;4992314;28;20503;-85
2021/12/29 08:46:41;;;;;;;68.25;15.82;;;8.20;99.90;;;;;;4992712;28;20135;-85
2021/12/29 08:49:07;;;;;;;78.95;17.38;;;7.10;99.90;;;;;;4961356;28;20633;-85
2021/12/29 08:51:33;;;;;;;55.00;15.32;;;8.20;99.90;;;;;;4941123;28;20042;-85
2021/12/29 08:53:59;;;;;;;47.22;14.27;;;7.80;99.90;;;;;;4973985;28;20044;-85
2021/12/29 08:56:26;;;;;;;49.55;15.70;;;7.20;99.90;;;;;;4957080;28;20137;-85
2021/12/29 08:58:53;;;;;;;73.15;15.60;;;7.30;99.90;;;;;;4989614;28;20038;-86
2021/12/29 09:01:21;;;;;;;48.33;14.05;;;8.50;99.90;;;;;;4973449;28;20050;-85
2021/12/29 09:03:50;;;;;;;87.38;16.25;;;7.20;99.90;;;;;;4988608;28;20446;-84
2021/12/29 09:06:16;;;;;;;60.97;16.02;;;7.20;99.90;;;;;;5007757;28;20037;-85
2021/12/29 09:08:43;;;;;;;68.18;14.68;;;7.20;99.90;;;;;;4976008;28;20096;-84
2021/12/29 09:11:09;;;;;;;49.42;14.25;;;7.20;99.90;;;;;;4972321;28;20462;-86
2021/12/29 09:13:35;;;;;;;55.90;14.30;;;7.30;99.90;;;;;;4955954;28;20073;-86
2021/12/29 09:16:01;;;;;;;55.30;14.32;;;7.30;99.90;;;;;;4976189;28;20521;-85
2021/12/29 09:18:29;;;;;;;42.03;13.25;;;7.30;99.90;;;;;;4999427;28;20060;-85
2021/12/29 09:21:02;;;;;;;51.60;14.32;;;7.30;99.90;;;;;;4995218;28;20124;-85
2021/12/29 09:23:28;;;;;;;55.83;14.40;;;7.40;99.90;;;;;;4974354;28;20091;-86
2021/12/29 09:25:55;;;;;;;50.10;13.48;;;7.40;99.90;;;;;;4976776;28;20511;-85
2021/12/29 09:28:22;;;;;;;70.78;16.23;;;7.40;99.90;;;;;;4988163;28;20120;-84
2021/12/29 09:30:50;;;;;;;74.00;16.67;;;8.60;99.90;;;;;;4995411;28;20084;-84
2021/12/29 09:33:17;;;;;;;48.20;14.68;;;7.40;99.90;;;;;;5010375;28;20045;-86
2021/12/29 09:35:43;;;;;;;74.93;14.02;;;7.40;99.90;;;;;;4978401;28;20034;-86
2021/12/29 09:38:10;;;;;;;57.40;14.07;;;7.40;99.90;;;;;;5014146;28;20111;-86
2021/12/29 09:40:38;;;;;;;45.70;13.52;;;8.30;99.90;;;;;;4994209;28;20042;-86
2021/12/29 09:43:06;;;;;;;34.30;12.15;;;7.70;99.90;;;;;;4995091;28;20517;-85
2021/12/29 09:45:32;;;;;;;52.45;12.68;;;8.20;99.90;;;;;;4995957;28;20065;-85
2021/12/29 09:47:58;;;;;;;51.83;13.02;;;8.30;99.90;;;;;;5019095;28;20536;-84
2021/12/29 09:50:26;;;;;;;88.57;14.15;;;7.60;99.90;;;;;;4996564;28;20038;-85
2021/12/29 09:52:53;;;;;;;70.05;14.30;;;8.50;99.90;;;;;;4982025;28;20493;-84
2021/12/29 09:55:21;;;;;;;58.88;13.02;;;8.50;99.90;;;;;;4998935;28;20045;-85
2021/12/29 09:57:49;;;;;;;54.42;13.02;;;8.40;99.90;;;;;;4976852;28;20033;-84
2021/12/29 10:00:23;;;;;;;70.65;13.02;;;7.50;99.90;;;;;;4998955;28;20047;-84
2021/12/29 10:02:49;;;;;;;47.47;11.77;;;7.80;99.90;;;;;;4996251;28;20049;-84
2021/12/29 10:05:15;;;;;;;59.20;12.75;;;8.50;99.90;;;;;;4998997;28;20037;-84
2021/12/29 10:07:41;;;;;;;53.55;12.48;;;8.50;99.90;;;;;;4998536;28;20390;-84
2021/12/29 10:10:19;;;;;;;57.00;12.32;;;7.50;99.90;;;;;;4982170;28;20517;-85
2021/12/29 10:12:46;;;;;;;48.45;11.13;;;7.60;99.90;;;;;;4982218;28;20029;-84
2021/12/29 10:15:12;;;;;;;70.57;11.95;;;7.60;99.90;;;;;;5011575;28;20621;-84
2021/12/29 10:17:38;;;;;;;44.15;11.02;;;7.60;99.90;;;;;;5003429;28;20065;-85
2021/12/29 10:20:17;;;;;;;42.20;10.70;;;7.60;99.90;;;;;;4971054;28;20038;-83
2021/12/29 10:22:54;;;;;;;31.60;10.18;;;7.60;99.90;;;;;;4977954;28;20069;-85
2021/12/29 10:25:24;;;;;;;37.58;10.75;;;8.20;99.90;;;;;;4963013;28;20042;-86
2021/12/29 10:27:51;;;;;;;38.30;10.18;;;7.70;99.90;;;;;;4989658;28;20041;-86
2021/12/29 10:30:20;;;;;;;30.30;9.90;;;8.60;99.90;;;;;;4978741;28;20046;-87
2021/12/29 10:32:46;;;;;;;29.52;9.85;;;7.80;99.90;;;;;;4992038;28;20446;-86
2021/12/29 10:35:31;;;;;;;30.60;9.95;;;7.80;99.90;;;;;;4977829;28;20042;-86
2021/12/29 10:38:11;;;;;;;27.45;9.63;;;8.00;99.90;;;;;;4976237;28;20121;-86
2021/12/29 10:40:37;;;;;;;30.80;9.85;;;7.80;99.90;;;;;;4991172;28;20077;-87
2021/12/29 10:43:03;;;;;;;26.52;9.60;;;7.90;99.90;;;;;;4979138;28;20041;-87
2021/12/29 10:45:41;;;;;;;31.75;10.15;;;8.20;99.90;;;;;;4994915;28;20042;-86
2021/12/29 10:48:17;;;;;;;27.70;9.20;;;8.70;99.90;;;;;;4978738;28;20109;-86
2021/12/29 10:50:59;;;;;;;27.60;8.98;;;8.20;99.90;;;;;;4979280;28;20550;-86
2021/12/29 10:53:25;;;;;;;26.58;9.30;;;8.00;99.90;;;;;;4978717;28;20041;-86
2021/12/29 10:55:51;;;;;;;33.92;9.70;;;7.90;99.90;;;;;;4978467;28;20041;-86
2021/12/29 10:58:21;;;;;;;23.83;8.10;;;8.00;99.90;;;;;;4962760;28;20038;-86
2021/12/29 11:01:06;;;;;;;25.92;8.95;;;8.00;99.90;;;;;;4994963;28;20108;-87
2021/12/29 11:03:33;;;;;;;25.05;8.43;;;8.00;99.90;;;;;;4994798;28;20100;-86
2021/12/29 11:06:02;;;;;;;23.30;8.30;;;8.00;99.90;;;;;;4978725;28;20068;-87
2021/12/29 11:08:50;;;;;;;23.23;8.98;;;8.00;99.90;;;;;;4978463;28;20034;-86
2021/12/29 11:11:18;;;;;;;22.63;8.25;;;8.00;99.90;;;;;;4981853;28;20038;-86
2021/12/29 11:13:44;;;;;;;21.52;8.43;;;8.80;99.90;;;;;;4959358;28;20037;-86
2021/12/29 11:16:10;;;;;;;21.00;9.10;;;8.00;99.90;;;;;;4946895;28;20042;-86
2021/12/29 11:18:48;;;;;;;28.25;10.48;;;8.00;99.90;;;;;;4978108;28;20129;-86
2021/12/29 11:21:29;;;;;;;20.95;9.10;;;8.00;99.90;;;;;;4978199;28;20133;-86
2021/12/29 11:23:55;;;;;;;25.73;8.23;;;8.00;99.90;;;;;;4994650;28;20675;-86
2021/12/29 11:26:29;;;;;;;22.38;9.23;;;8.00;99.90;;;;;;4962331;28;20121;-86
2021/12/29 11:29:12;;;;;;;23.83;8.75;;;9.10;99.90;;;;;;4978831;28;20085;-86
2021/12/29 11:31:57;;;;;;;25.92;9.45;;;7.90;99.90;;;;;;4978468;28;20050;-86
2021/12/29 11:34:26;;;;;;;22.30;8.95;;;7.90;99.90;;;;;;4976400;28;20056;-86
2021/12/29 11:37:04;;;;;;;26.35;8.98;;;7.90;99.90;;;;;;4993216;28;20036;-86
2021/12/29 11:39:31;;;;;;;22.25;8.15;;;7.90;99.90;;;;;;4991062;28;20495;-86
2021/12/29 11:41:57;;;;;;;26.48;9.07;;;8.70;99.90;;;;;;4977068;28;20042;-86
2021/12/29 11:44:23;;;;;;;24.10;8.38;;;8.70;99.90;;;;;;4958259;28;20045;-86
2021/12/29 11:46:50;;;;;;;24.80;8.77;;;8.10;99.90;;;;;;4975765;28;20117;-86
2021/12/29 11:49:17;;;;;;;23.52;9.20;;;7.90;99.90;;;;;;4976894;28;20061;-86
2021/12/29 11:52:05;;;;;;;25.70;8.73;;;8.00;99.90;;;;;;4942528;28;20049;-86
2021/12/29 11:54:46;;;;;;;21.90;9.07;;;8.00;99.90;;;;;;4971884;28;20108;-86
2021/12/29 11:57:21;;;;;;;24.45;8.63;;;8.00;99.90;;;;;;4986994;28;20034;-85
2021/12/29 11:59:46;;;;;;;25.38;8.45;;;8.00;99.90;;;;;;4972072;28;20073;-86
2021/12/29 12:02:28;;;;;;;26.02;8.60;;;8.00;99.90;;;;;;4945275;28;20069;-86
2021/12/29 12:05:02;;;;;;;18.40;8.30;;;8.00;99.90;;;;;;4983298;28;20044;-86
2021/12/29 12:07:28;;;;;;;22.15;8.63;;;8.80;99.90;;;;;;4983836;28;20565;-86
2021/12/29 12:09:56;;;;;;;26.67;9.00;;;9.00;99.90;;;;;;4958953;28;20053;-87
2021/12/29 12:12:34;;;;;;;23.67;8.52;;;8.30;99.90;;;;;;4973612;28;20078;-86
2021/12/29 12:15:01;;;;;;;21.48;8.13;;;8.00;99.90;;;;;;4968439;28;20108;-86
2021/12/29 12:17:28;;;;;;;21.00;8.23;;;8.80;99.90;;;;;;4976350;28;20050;-86
2021/12/29 12:20:06;;;;;;;20.52;8.55;;;8.00;99.90;;;;;;4944106;28;20076;-86
2021/12/29 12:22:52;;;;;;;25.10;8.15;;;8.00;99.90;;;;;;4976482;28;20037;-86
2021/12/29 12:25:30;;;;;;;28.60;9.43;;;8.30;99.90;;;;;;4944924;28;20076;-86
2021/12/29 12:28:01;;;;;;;23.58;9.23;;;8.80;99.90;;;;;;4974878;28;20043;-87
2021/12/29 12:30:37;;;;;;;22.65;8.45;;;8.00;99.90;;;;;;4960971;28;20052;-86
2021/12/29 12:33:14;;;;;;;23.67;8.45;;;8.20;99.90;;;;;;4993508;28;20534;-86
2021/12/29 12:35:46;;;;;;;26.20;9.07;;;8.10;99.90;;;;;;4987806;28;20135;-86
2021/12/29 12:38:22;;;;;;;21.88;8.55;;;8.10;99.90;;;;;;4993075;28;20034;-87
2021/12/29 12:41:08;;;;;;;23.58;9.00;;;8.40;99.90;;;;;;4993697;28;20422;-87
2021/12/29 12:43:47;;;;;;;22.75;9.07;;;8.80;99.90;;;;;;4990258;28;20045;-86
2021/12/29 12:46:13;;;;;;;23.65;8.18;;;8.90;99.90;;;;;;4977689;28;20038;-86
2021/12/29 12:48:40;;;;;;;26.00;8.45;;;8.40;99.90;;;;;;4988146;28;20048;-86